Scandinavia, Nebraska
Current Conditions -  °F | °C
As of 2:15 AM on Tuesday 21 Oct 2014 (Local Time) from KHDE Reporting Station
Clear Clear  
Wind Chill: 50°   Ceiling: Unl
Heat Index: 50°   Visibility: 10mi
Dew Point: 40°   Wind: 0mph
Humidity: 71%   Direction: NA
Pressure: 30.07"   Gusts: NA
Location:  40.3071°N, 99.2358°W
Report Text: KHDE 210715Z AUTO 00000KT 10SM CLR 10/05 A3007 RMK AO2 T00980047
Loading
Personal Weather Stations






























Interactive Weather Map
Tropical Storm Tracking
New forecast layout! Learn more

10-Day Weather Forecast

Advertisements
Track Severe Weather on mobile